Time;durP1;ratioP1;P1;durP2;ratioP2;P2;SDS_P1;SDS_P2;PMS_P1;PMS_P2;Temp;Humidity;BMP_temperature;BMP_pressure;BME280_temperature;BME280_humidity;BME280_pressure;Samples;Min_cycle;Max_cycle;Signal;HPM_P1;HPM_P2
2023/05/08 00:01:24;;;;;;;10.15;4.97;;;12.50;99.90;;;;;;4992300;28;20078;-54
2023/05/08 00:03:51;;;;;;;5.22;4.20;;;12.50;99.90;;;;;;4992221;28;20050;-56
2023/05/08 00:06:18;;;;;;;7.93;4.72;;;12.50;99.90;;;;;;4992943;28;20570;-56
2023/05/08 00:08:45;;;;;;;6.63;4.45;;;12.50;99.90;;;;;;4999490;28;20108;-55
2023/05/08 00:11:12;;;;;;;9.73;4.85;;;12.40;99.90;;;;;;5008726;28;20043;-54
2023/05/08 00:13:40;;;;;;;8.40;4.35;;;12.40;99.90;;;;;;4992294;28;20046;-54
2023/05/08 00:16:11;;;;;;;9.98;4.43;;;12.40;99.90;;;;;;4992275;28;20035;-53
2023/05/08 00:18:38;;;;;;;5.35;4.35;;;12.40;99.90;;;;;;4992758;28;20050;-55
2023/05/08 00:21:05;;;;;;;6.32;4.30;;;12.40;99.90;;;;;;4990330;28;20461;-54
2023/05/08 00:23:33;;;;;;;10.32;4.70;;;12.40;99.90;;;;;;5006562;28;20046;-55
2023/05/08 00:26:00;;;;;;;6.10;4.13;;;12.40;99.90;;;;;;4991990;28;20046;-54
2023/05/08 00:28:27;;;;;;;6.47;4.35;;;12.50;99.90;;;;;;4992449;28;20475;-56
2023/05/08 00:30:53;;;;;;;8.80;4.05;;;12.40;99.90;;;;;;4988999;28;20046;-56
2023/05/08 00:33:20;;;;;;;6.00;4.20;;;12.40;99.90;;;;;;4992562;28;20046;-53
2023/05/08 00:35:47;;;;;;;6.60;4.40;;;12.40;99.90;;;;;;4990618;28;20042;-57
2023/05/08 00:38:13;;;;;;;7.40;4.47;;;12.40;99.90;;;;;;4991108;28;20487;-53
2023/05/08 00:40:41;;;;;;;10.75;4.32;;;12.40;99.90;;;;;;4981180;28;20053;-54
2023/05/08 00:43:08;;;;;;;8.77;4.63;;;12.40;99.90;;;;;;4975286;28;20137;-56
2023/05/08 00:45:38;;;;;;;8.73;4.35;;;12.40;99.90;;;;;;4980738;28;20050;-53
2023/05/08 00:48:06;;;;;;;9.23;4.47;;;12.30;99.90;;;;;;4993048;28;20376;-57
2023/05/08 00:50:34;;;;;;;11.18;4.60;;;12.40;99.90;;;;;;4988301;28;20156;-55
2023/05/08 00:53:03;;;;;;;7.22;4.28;;;12.40;99.90;;;;;;4992391;28;20054;-56
2023/05/08 00:55:31;;;;;;;10.55;5.07;;;12.30;99.90;;;;;;4985735;28;20050;-55
2023/05/08 00:57:59;;;;;;;10.60;4.78;;;12.40;99.90;;;;;;5013126;28;20044;-56
2023/05/08 01:00:26;;;;;;;6.85;4.30;;;12.40;99.90;;;;;;4987689;28;20038;-56
2023/05/08 01:02:52;;;;;;;8.13;4.53;;;12.30;99.90;;;;;;4994961;28;20046;-56
2023/05/08 01:05:19;;;;;;;7.57;4.13;;;12.40;99.90;;;;;;4985371;28;20065;-54
2023/05/08 01:07:46;;;;;;;8.07;4.28;;;12.40;99.90;;;;;;4995935;28;20061;-55
2023/05/08 01:10:15;;;;;;;6.72;4.10;;;12.40;99.90;;;;;;4997390;28;20056;-57
2023/05/08 01:13:00;;;;;;;7.95;4.30;;;12.30;99.90;;;;;;5015537;28;20092;-55
2023/05/08 01:15:30;;;;;;;11.00;4.70;;;12.40;99.90;;;;;;5002579;28;20132;-55
2023/05/08 01:18:06;;;;;;;11.10;4.85;;;12.30;99.90;;;;;;4989529;28;20054;-53
2023/05/08 01:20:52;;;;;;;7.78;4.60;;;12.40;99.90;;;;;;4995453;28;20124;-56
2023/05/08 01:23:50;;;;;;;6.82;4.32;;;12.40;99.90;;;;;;4995969;28;20549;-54
2023/05/08 01:26:36;;;;;;;6.10;4.20;;;12.40;99.90;;;;;;4981738;28;20096;-56
2023/05/08 01:29:30;;;;;;;7.68;4.10;;;12.40;99.90;;;;;;4996097;28;20458;-53
2023/05/08 01:32:19;;;;;;;8.07;4.45;;;12.30;99.90;;;;;;4996933;28;20499;-54
2023/05/08 01:35:05;;;;;;;11.10;4.68;;;12.30;99.90;;;;;;4992433;28;20471;-56
2023/05/08 01:38:01;;;;;;;8.77;4.55;;;12.40;99.90;;;;;;4996518;28;20471;-54
2023/05/08 01:40:51;;;;;;;8.70;4.10;;;12.40;99.90;;;;;;4984466;28;20054;-54
2023/05/08 01:43:31;;;;;;;7.10;4.32;;;12.30;99.90;;;;;;4994973;28;20430;-55
2023/05/08 01:46:01;;;;;;;5.18;4.30;;;12.30;99.90;;;;;;4993793;28;20137;-58
2023/05/08 01:48:34;;;;;;;8.38;5.00;;;12.30;99.90;;;;;;4995657;28;20458;-53
2023/05/08 01:51:12;;;;;;;6.05;4.63;;;12.30;99.90;;;;;;4994861;28;20571;-55
2023/05/08 01:53:47;;;;;;;5.43;4.40;;;12.40;99.90;;;;;;4990434;28;20050;-56
2023/05/08 01:56:20;;;;;;;6.18;4.38;;;12.40;99.90;;;;;;4988256;28;20663;-57
2023/05/08 01:58:52;;;;;;;9.10;4.85;;;12.80;99.90;;;;;;4980536;28;20054;-56
2023/05/08 02:01:22;;;;;;;13.82;4.65;;;12.30;99.90;;;;;;4989117;28;20045;-54
2023/05/08 02:03:50;;;;;;;7.32;4.55;;;12.30;99.90;;;;;;4993284;28;20042;-57
2023/05/08 02:06:20;;;;;;;5.95;4.55;;;12.30;99.90;;;;;;4989043;28;20140;-54
2023/05/08 02:08:49;;;;;;;7.85;4.60;;;12.20;99.90;;;;;;4986846;28;20133;-56
2023/05/08 02:11:18;;;;;;;7.45;4.68;;;12.30;99.90;;;;;;4996348;28;20050;-56
2023/05/08 02:13:47;;;;;;;9.02;5.07;;;12.30;99.90;;;;;;4998693;28;20042;-56
2023/05/08 02:16:15;;;;;;;7.60;5.15;;;12.40;99.90;;;;;;4994414;28;20042;-54
2023/05/08 02:18:47;;;;;;;7.75;4.50;;;12.50;99.90;;;;;;4984086;28;20104;-53
2023/05/08 02:21:16;;;;;;;6.72;4.70;;;12.50;99.90;;;;;;4976953;28;20483;-57
2023/05/08 02:23:44;;;;;;;10.40;5.00;;;12.60;99.90;;;;;;5000839;28;20089;-57
2023/05/08 02:26:13;;;;;;;6.38;4.95;;;12.60;99.90;;;;;;4993434;28;20495;-55
2023/05/08 02:28:41;;;;;;;9.38;5.75;;;12.70;99.90;;;;;;4991576;28;20038;-58
2023/05/08 02:31:09;;;;;;;8.48;6.28;;;12.70;99.90;;;;;;4994137;28;20109;-58
2023/05/08 02:33:40;;;;;;;11.00;5.95;;;12.70;99.90;;;;;;4996184;28;20521;-57
2023/05/08 02:36:09;;;;;;;10.52;6.55;;;12.80;99.90;;;;;;4991917;28;20491;-56
2023/05/08 02:38:38;;;;;;;11.93;8.00;;;12.80;99.90;;;;;;4982339;28;20077;-55
2023/05/08 02:41:06;;;;;;;14.23;7.95;;;12.80;99.90;;;;;;5007785;28;20649;-53
2023/05/08 02:43:34;;;;;;;13.23;8.60;;;12.80;99.90;;;;;;4979481;28;20030;-56
2023/05/08 02:46:07;;;;;;;12.63;8.60;;;12.80;99.90;;;;;;4990130;28;20039;-58
2023/05/08 02:49:03;;;;;;;17.42;9.45;;;12.90;99.90;;;;;;4977337;28;20125;-53
2023/05/08 02:52:09;;;;;;;13.60;8.38;;;12.90;99.90;;;;;;4980544;28;20062;-55
2023/05/08 02:54:43;;;;;;;15.07;8.55;;;12.90;99.90;;;;;;4991992;28;20080;-57
2023/05/08 02:57:30;;;;;;;11.52;8.23;;;12.90;99.90;;;;;;4993205;28;20502;-56
2023/05/08 03:00:28;;;;;;;20.70;9.23;;;12.80;99.90;;;;;;4984251;28;20042;-55
2023/05/08 03:03:09;;;;;;;15.48;9.45;;;12.80;99.90;;;;;;4989453;28;20077;-54
2023/05/08 03:05:38;;;;;;;10.43;7.05;;;12.80;99.90;;;;;;4995940;28;20042;-56
2023/05/08 03:08:14;;;;;;;9.45;6.45;;;12.80;99.90;;;;;;4994980;28;20085;-53
2023/05/08 03:10:45;;;;;;;10.97;6.80;;;12.70;99.90;;;;;;4993094;28;20100;-55
2023/05/08 03:13:14;;;;;;;11.25;6.57;;;12.70;99.90;;;;;;4992142;28;20061;-54
2023/05/08 03:15:54;;;;;;;11.52;6.95;;;12.90;99.90;;;;;;4991070;28;20473;-58
2023/05/08 03:18:35;;;;;;;11.30;5.30;;;12.60;99.90;;;;;;4992009;28;20054;-57
2023/05/08 03:21:04;;;;;;;9.15;5.95;;;12.60;99.90;;;;;;4980260;28;20038;-56
2023/05/08 03:23:34;;;;;;;9.55;5.95;;;12.50;99.90;;;;;;4984134;28;20038;-55
2023/05/08 03:26:02;;;;;;;9.10;6.43;;;12.50;99.90;;;;;;4993722;28;20372;-54
2023/05/08 03:28:30;;;;;;;8.82;6.43;;;12.50;99.90;;;;;;4994742;28;20050;-56
2023/05/08 03:31:00;;;;;;;8.35;5.78;;;12.50;99.90;;;;;;4989028;28;20043;-57
2023/05/08 03:33:28;;;;;;;7.07;5.60;;;12.50;99.90;;;;;;5000627;28;20126;-55
2023/05/08 03:35:56;;;;;;;8.00;6.18;;;12.50;99.90;;;;;;4982923;28;20042;-56
2023/05/08 03:38:24;;;;;;;15.60;7.53;;;12.40;99.90;;;;;;4980857;28;20641;-57
2023/05/08 03:40:51;;;;;;;11.35;6.63;;;12.50;99.90;;;;;;4983171;28;20387;-56
2023/05/08 03:43:20;;;;;;;11.32;6.88;;;12.50;99.90;;;;;;4992598;28;20394;-56
2023/05/08 03:45:48;;;;;;;11.75;7.05;;;12.50;99.90;;;;;;4997257;28;20043;-57
2023/05/08 03:48:16;;;;;;;14.07;7.70;;;12.50;99.90;;;;;;4982607;28;20045;-54
2023/05/08 03:50:44;;;;;;;12.77;6.78;;;12.50;99.90;;;;;;4990842;28;20069;-57
2023/05/08 03:53:11;;;;;;;13.32;7.10;;;12.60;99.90;;;;;;4982682;28;20426;-57
2023/05/08 03:55:39;;;;;;;9.95;6.60;;;12.70;99.90;;;;;;4983538;28;20046;-56
2023/05/08 03:58:30;;;;;;;12.55;6.85;;;12.70;99.90;;;;;;4980128;28;20081;-58
2023/05/08 04:01:15;;;;;;;9.55;6.43;;;12.70;99.90;;;;;;4999159;28;20389;-57
2023/05/08 04:03:53;;;;;;;9.30;6.97;;;12.70;99.90;;;;;;4984310;28;20391;-55
2023/05/08 04:06:31;;;;;;;14.90;8.00;;;12.70;99.90;;;;;;4983345;28;20061;-54
2023/05/08 04:09:27;;;;;;;10.82;7.35;;;12.80;99.90;;;;;;4982448;28;20046;-56
2023/05/08 04:12:04;;;;;;;13.85;8.30;;;12.80;99.90;;;;;;4995063;28;20042;-53
2023/05/08 04:14:52;;;;;;;19.70;10.77;;;12.80;99.90;;;;;;4982196;28;20042;-55
2023/05/08 04:17:42;;;;;;;14.88;9.82;;;12.80;99.90;;;;;;4992112;28;20125;-56
2023/05/08 04:20:16;;;;;;;19.17;10.47;;;12.80;99.90;;;;;;5005064;28;20470;-57
2023/05/08 04:22:47;;;;;;;21.52;11.60;;;12.80;99.90;;;;;;4979036;28;20291;-56
2023/05/08 04:25:16;;;;;;;19.83;11.82;;;13.20;99.90;;;;;;5010224;28;20046;-56
2023/05/08 04:27:44;;;;;;;22.52;12.02;;;12.90;99.90;;;;;;4994122;28;20042;-58
2023/05/08 04:30:12;;;;;;;19.63;12.13;;;12.90;99.90;;;;;;4990316;28;20466;-55
2023/05/08 04:32:39;;;;;;;21.27;12.38;;;12.90;99.90;;;;;;4992071;28;20050;-56
2023/05/08 04:35:12;;;;;;;19.23;12.52;;;12.90;99.90;;;;;;4990899;28;20472;-56
2023/05/08 04:37:41;;;;;;;19.73;13.02;;;12.90;99.90;;;;;;4972547;28;20049;-58
2023/05/08 04:40:09;;;;;;;21.13;12.05;;;12.80;99.90;;;;;;4990970;28;20045;-56
2023/05/08 04:42:38;;;;;;;22.30;13.45;;;12.80;99.90;;;;;;4987956;28;20133;-55
2023/05/08 04:45:06;;;;;;;20.65;13.25;;;12.80;99.90;;;;;;4990501;28;20073;-57
2023/05/08 04:47:33;;;;;;;23.10;13.32;;;12.80;99.90;;;;;;4984328;28;20125;-56
2023/05/08 04:50:01;;;;;;;21.38;13.65;;;12.80;99.90;;;;;;4987669;28;20054;-55
2023/05/08 04:52:28;;;;;;;20.80;13.05;;;12.80;99.90;;;;;;4983722;28;20053;-57
2023/05/08 04:54:55;;;;;;;26.40;14.65;;;12.80;99.90;;;;;;4983390;28;20046;-58
2023/05/08 04:57:22;;;;;;;24.70;14.05;;;12.80;99.90;;;;;;4993747;28;20046;-57
2023/05/08 04:59:49;;;;;;;23.48;15.10;;;12.70;99.90;;;;;;4993555;28;20046;-54
2023/05/08 05:02:17;;;;;;;22.33;13.73;;;12.70;99.90;;;;;;4987370;28;20042;-55
2023/05/08 05:04:45;;;;;;;25.42;14.15;;;12.80;99.90;;;;;;4985999;28;20045;-56
2023/05/08 05:07:12;;;;;;;;;;;12.80;99.90;;;;;;4989849;28;20042;-57
2023/05/08 05:09:39;;;;;;;21.60;13.75;;;12.80;99.90;;;;;;4987880;28;20286;-58
2023/05/08 05:12:06;;;;;;;22.55;14.55;;;12.80;99.90;;;;;;4989999;28;20054;-58
2023/05/08 05:14:34;;;;;;;24.08;13.93;;;12.80;99.90;;;;;;4988230;28;20056;-56
2023/05/08 05:17:01;;;;;;;22.42;14.40;;;12.70;99.90;;;;;;4996863;28;20092;-57
2023/05/08 05:19:28;;;;;;;;;;;12.80;99.90;;;;;;4998373;28;20050;-55
2023/05/08 05:21:55;;;;;;;25.52;14.88;;;12.70;99.90;;;;;;4982806;28;20012;-58
2023/05/08 05:24:22;;;;;;;24.13;14.45;;;12.70;99.90;;;;;;4983089;28;20049;-55
2023/05/08 05:26:48;;;;;;;25.52;15.15;;;12.70;99.90;;;;;;4968689;28;20499;-54
2023/05/08 05:29:16;;;;;;;;;;;12.70;99.90;;;;;;4993894;28;20037;-56
2023/05/08 05:31:42;;;;;;;27.80;14.82;;;12.70;99.90;;;;;;4995162;28;20021;-56
2023/05/08 05:34:10;;;;;;;25.13;15.10;;;12.70;99.90;;;;;;4973719;28;20050;-57
2023/05/08 05:36:36;;;;;;;22.33;13.88;;;12.70;99.90;;;;;;4988006;28;20042;-55
2023/05/08 05:39:03;;;;;;;27.40;14.52;;;12.70;99.90;;;;;;4974133;28;20039;-55
2023/05/08 05:41:31;;;;;;;21.98;14.68;;;12.70;99.90;;;;;;4974721;28;20065;-57
2023/05/08 05:43:58;;;;;;;21.85;13.80;;;12.70;99.90;;;;;;5012411;28;20045;-56
2023/05/08 05:46:31;;;;;;;25.50;14.63;;;12.70;99.90;;;;;;4990855;28;20062;-54
2023/05/08 05:49:00;;;;;;;22.92;14.65;;;12.70;99.90;;;;;;4994902;28;20049;-57
2023/05/08 05:51:28;;;;;;;23.48;14.55;;;12.60;99.90;;;;;;4995934;28;20469;-55
2023/05/08 05:53:56;;;;;;;;;;;12.60;99.90;;;;;;4981085;28;20052;-57
2023/05/08 05:56:23;;;;;;;19.75;13.05;;;12.60;99.90;;;;;;4982245;28;19921;-56
2023/05/08 05:58:50;;;;;;;24.77;14.82;;;12.70;99.90;;;;;;5009848;28;20073;-57
2023/05/08 06:01:17;;;;;;;20.63;13.68;;;12.60;99.90;;;;;;5002331;28;20038;-58
2023/05/08 06:03:44;;;;;;;21.02;13.05;;;12.60;99.90;;;;;;4993618;28;20038;-53
2023/05/08 06:06:11;;;;;;;23.55;13.00;;;12.60;99.90;;;;;;4982313;28;20469;-57
2023/05/08 06:08:38;;;;;;;20.23;13.35;;;12.50;99.90;;;;;;4985634;28;20073;-57
2023/05/08 06:11:05;;;;;;;22.67;13.10;;;12.50;99.90;;;;;;5003222;28;20049;-57
2023/05/08 06:13:31;;;;;;;23.77;14.30;;;12.50;99.90;;;;;;4996783;28;20057;-56
2023/05/08 06:15:59;;;;;;;;;;;12.60;99.90;;;;;;4995869;28;20049;-57
2023/05/08 06:18:26;;;;;;;22.42;12.70;;;12.60;99.90;;;;;;4980283;28;19969;-55
2023/05/08 06:20:57;;;;;;;22.42;13.73;;;12.50;99.90;;;;;;4989522;28;20046;-57
2023/05/08 06:23:24;;;;;;;22.13;13.43;;;12.60;99.90;;;;;;4994219;28;20046;-55
2023/05/08 06:25:51;;;;;;;;;;;12.60;99.90;;;;;;4999793;28;20050;-55
2023/05/08 06:28:18;;;;;;;26.38;13.55;;;12.50;99.90;;;;;;4994489;28;19973;-56
2023/05/08 06:30:45;;;;;;;24.95;13.02;;;12.60;99.90;;;;;;5001810;28;20038;-54
2023/05/08 06:33:12;;;;;;;22.65;13.60;;;12.60;99.90;;;;;;5008855;28;20077;-53
2023/05/08 06:35:39;;;;;;;19.67;13.13;;;12.60;99.90;;;;;;4990007;28;20506;-57
2023/05/08 06:38:05;;;;;;;23.95;13.38;;;12.70;99.90;;;;;;4991604;28;20061;-54
2023/05/08 06:40:32;;;;;;;23.20;13.43;;;12.60;99.90;;;;;;4991528;28;20097;-57
2023/05/08 06:42:59;;;;;;;25.35;13.40;;;12.60;99.90;;;;;;4993682;28;20376;-57
2023/05/08 06:45:25;;;;;;;30.15;13.75;;;12.60;99.90;;;;;;4993622;28;20046;-55
2023/05/08 06:47:52;;;;;;;24.23;13.35;;;12.70;99.90;;;;;;5000777;28;20049;-57
2023/05/08 06:50:19;;;;;;;27.00;13.85;;;12.70;99.90;;;;;;5009231;28;20047;-57
2023/05/08 06:52:46;;;;;;;19.65;13.38;;;12.70;99.90;;;;;;4992906;28;20097;-57
2023/05/08 06:55:12;;;;;;;22.25;13.23;;;12.80;99.90;;;;;;4992787;28;20474;-57
2023/05/08 06:57:39;;;;;;;21.60;13.43;;;12.90;99.90;;;;;;4993652;28;20046;-54
2023/05/08 07:00:07;;;;;;;20.52;13.20;;;12.90;99.90;;;;;;4993863;28;20078;-56
2023/05/08 07:02:34;;;;;;;19.38;12.90;;;13.00;99.90;;;;;;5004967;28;20042;-57
2023/05/08 07:05:01;;;;;;;28.52;13.10;;;13.10;99.90;;;;;;4995014;28;20042;-55
2023/05/08 07:07:28;;;;;;;19.52;12.80;;;13.20;99.90;;;;;;4993566;28;20054;-57
2023/05/08 07:09:55;;;;;;;23.38;13.38;;;13.40;99.90;;;;;;5000009;28;20046;-55
2023/05/08 07:12:22;;;;;;;20.35;13.18;;;13.40;99.90;;;;;;5008401;28;20524;-56
2023/05/08 07:14:49;;;;;;;23.95;13.20;;;13.40;99.90;;;;;;4992865;28;20046;-57
2023/05/08 07:17:15;;;;;;;25.63;12.82;;;13.40;99.90;;;;;;4991839;28;20081;-55
2023/05/08 07:19:42;;;;;;;20.95;13.13;;;13.50;99.90;;;;;;5008342;28;20103;-56
2023/05/08 07:22:09;;;;;;;23.42;13.10;;;13.50;99.90;;;;;;5001432;28;20073;-56
2023/05/08 07:24:36;;;;;;;25.42;12.98;;;13.50;99.90;;;;;;4993014;28;20046;-53
2023/05/08 07:27:03;;;;;;;19.98;12.93;;;13.50;99.90;;;;;;4992136;28;20170;-54
2023/05/08 07:29:29;;;;;;;20.45;12.20;;;13.40;99.90;;;;;;4991920;28;20046;-57
2023/05/08 07:31:56;;;;;;;17.50;11.48;;;13.40;99.90;;;;;;4974434;28;20092;-57
2023/05/08 07:34:23;;;;;;;20.08;13.65;;;13.40;99.90;;;;;;5000319;28;20042;-55
2023/05/08 07:36:50;;;;;;;18.67;11.98;;;13.40;99.90;;;;;;4999132;28;20046;-56
2023/05/08 07:39:16;;;;;;;19.00;12.10;;;13.40;99.90;;;;;;5001604;28;20046;-56
2023/05/08 07:41:44;;;;;;;19.95;11.40;;;13.50;99.90;;;;;;5006671;28;20046;-55
2023/05/08 07:44:14;;;;;;;18.77;12.20;;;13.60;99.90;;;;;;5000248;28;20089;-56
2023/05/08 07:46:40;;;;;;;22.15;11.40;;;13.80;99.90;;;;;;4981713;28;20046;-57
2023/05/08 07:49:07;;;;;;;18.63;12.27;;;13.90;99.90;;;;;;5002878;28;20042;-56
2023/05/08 07:51:34;;;;;;;17.95;12.13;;;14.00;99.90;;;;;;5006152;28;20082;-56
2023/05/08 07:54:00;;;;;;;19.20;11.60;;;14.20;99.90;;;;;;4991880;28;20463;-55
2023/05/08 07:56:27;;;;;;;18.08;11.73;;;14.20;99.90;;;;;;4992672;28;20110;-57
2023/05/08 07:58:54;;;;;;;20.25;11.25;;;14.30;99.90;;;;;;5007766;28;20473;-55
2023/05/08 08:01:21;;;;;;;16.63;11.15;;;14.40;99.90;;;;;;5001864;28;20088;-56
2023/05/08 08:03:47;;;;;;;17.55;11.15;;;14.50;99.90;;;;;;5011648;28;20050;-57
2023/05/08 08:06:14;;;;;;;19.10;11.85;;;14.60;99.90;;;;;;4990757;28;20042;-56
2023/05/08 08:08:41;;;;;;;18.13;11.23;;;14.80;99.90;;;;;;4989333;28;20085;-54
2023/05/08 08:11:08;;;;;;;19.65;11.60;;;15.00;99.90;;;;;;4992382;28;20105;-56
2023/05/08 08:13:35;;;;;;;;;;;15.30;99.90;;;;;;4992830;28;20046;-55
2023/05/08 08:16:03;;;;;;;17.33;11.48;;;15.40;99.90;;;;;;4992096;28;20394;-57
2023/05/08 08:18:33;;;;;;;22.02;11.50;;;15.50;99.90;;;;;;5011783;28;20068;-54
2023/05/08 08:21:00;;;;;;;15.90;11.20;;;15.50;99.90;;;;;;4993452;28;20042;-56
2023/05/08 08:23:27;;;;;;;17.13;11.50;;;15.50;99.90;;;;;;4991467;28;20042;-54
2023/05/08 08:25:53;;;;;;;18.55;12.75;;;15.40;99.90;;;;;;4991922;28;20101;-57
2023/05/08 08:28:21;;;;;;;18.45;11.80;;;15.30;99.90;;;;;;4992131;28;20070;-54
2023/05/08 08:30:48;;;;;;;24.83;12.93;;;15.30;99.90;;;;;;4990402;28;20042;-56
2023/05/08 08:33:14;;;;;;;19.25;12.35;;;15.20;99.90;;;;;;5010813;28;20548;-54
2023/05/08 08:35:44;;;;;;;19.42;12.60;;;15.20;99.90;;;;;;4995571;28;20081;-55
2023/05/08 08:38:11;;;;;;;17.63;11.65;;;15.30;99.90;;;;;;4991318;28;20050;-56
2023/05/08 08:40:41;;;;;;;20.08;12.27;;;15.30;99.90;;;;;;4996458;28;20545;-55
2023/05/08 08:43:09;;;;;;;19.02;12.27;;;15.20;99.90;;;;;;5009134;28;20190;-56
2023/05/08 08:45:36;;;;;;;;;;;15.30;99.90;;;;;;4993225;28;20042;-58
2023/05/08 08:48:04;;;;;;;25.02;12.93;;;15.20;99.90;;;;;;4993234;28;20400;-54
2023/05/08 08:50:32;;;;;;;21.00;12.13;;;15.10;99.90;;;;;;4991289;28;20507;-57
2023/05/08 08:53:06;;;;;;;20.77;13.13;;;15.10;99.90;;;;;;4991608;28;20113;-57
2023/05/08 08:55:38;;;;;;;21.20;12.52;;;15.10;99.90;;;;;;4995932;28;20046;-55
2023/05/08 08:58:14;;;;;;;19.25;12.48;;;15.10;99.90;;;;;;4991868;28;20042;-56
2023/05/08 09:00:41;;;;;;;19.80;12.23;;;15.00;99.90;;;;;;4988591;28;20054;-58
2023/05/08 09:03:08;;;;;;;21.90;13.18;;;15.00;99.90;;;;;;5007944;28;20100;-56
2023/05/08 09:05:37;;;;;;;25.25;12.85;;;15.00;99.90;;;;;;4996229;28;20046;-55
2023/05/08 09:08:05;;;;;;;27.27;14.23;;;15.00;99.90;;;;;;4990079;28;20053;-56
2023/05/08 09:10:34;;;;;;;23.20;12.60;;;15.10;99.90;;;;;;4991013;28;20399;-53
2023/05/08 09:13:04;;;;;;;19.35;12.85;;;15.30;99.90;;;;;;4991458;28;20398;-55
2023/05/08 09:15:32;;;;;;;25.02;12.80;;;15.50;99.90;;;;;;4991533;28;20503;-55
2023/05/08 09:18:02;;;;;;;19.48;12.85;;;15.60;99.90;;;;;;5010438;28;20600;-54
2023/05/08 09:20:29;;;;;;;20.05;13.13;;;15.50;99.90;;;;;;5000152;28;20271;-57
2023/05/08 09:22:59;;;;;;;26.60;13.73;;;15.60;99.90;;;;;;4995359;28;20092;-54
2023/05/08 09:25:40;;;;;;;19.23;13.07;;;15.70;99.90;;;;;;4994771;28;20034;-55
2023/05/08 09:28:25;;;;;;;18.75;11.95;;;15.70;99.90;;;;;;4995408;28;20046;-57
2023/05/08 09:30:54;;;;;;;22.85;13.13;;;15.70;99.90;;;;;;4993809;28;20042;-55
2023/05/08 09:33:23;;;;;;;19.90;11.93;;;15.70;99.90;;;;;;5006866;28;20568;-57
2023/05/08 09:35:50;;;;;;;17.45;12.13;;;15.90;99.90;;;;;;4998688;28;20050;-58
2023/05/08 09:38:37;;;;;;;21.05;13.52;;;16.00;99.90;;;;;;4994978;28;20397;-53
2023/05/08 09:41:13;;;;;;;22.90;14.20;;;16.00;99.90;;;;;;5002764;28;20449;-55
2023/05/08 09:43:41;;;;;;;25.88;12.60;;;16.10;99.90;;;;;;5008434;28;20053;-55
2023/05/08 09:46:24;;;;;;;20.05;12.85;;;16.30;99.90;;;;;;4994891;28;20574;-55
2023/05/08 09:48:53;;;;;;;19.65;12.52;;;16.50;99.90;;;;;;4993754;28;20046;-53
2023/05/08 09:51:21;;;;;;;23.17;12.63;;;16.70;99.90;;;;;;4998198;28;20088;-54
2023/05/08 09:53:53;;;;;;;17.48;12.60;;;16.80;99.90;;;;;;4998253;28;20516;-56
2023/05/08 09:56:38;;;;;;;18.33;12.63;;;16.90;99.90;;;;;;4986967;28;20096;-58
2023/05/08 09:59:22;;;;;;;18.27;12.65;;;16.90;99.90;;;;;;4993876;28;20399;-54
2023/05/08 10:01:49;;;;;;;20.42;12.30;;;16.90;99.90;;;;;;5000592;28;20561;-58
2023/05/08 10:04:16;;;;;;;23.20;12.25;;;17.00;99.90;;;;;;5010944;28;20077;-53
2023/05/08 10:06:54;;;;;;;21.23;13.35;;;16.90;99.90;;;;;;4993998;28;20495;-56
2023/05/08 10:09:22;;;;;;;20.08;12.63;;;16.80;99.90;;;;;;4993385;28;20073;-58
2023/05/08 10:11:51;;;;;;;18.25;13.30;;;17.00;99.90;;;;;;5002216;28;20101;-56
2023/05/08 10:14:18;;;;;;;25.90;14.18;;;17.30;99.90;;;;;;5002008;28;20042;-58
2023/05/08 10:16:50;;;;;;;23.13;13.82;;;17.60;99.90;;;;;;4994405;28;20117;-54
2023/05/08 10:19:22;;;;;;;19.58;13.32;;;17.90;99.90;;;;;;4996166;28;20046;-57
2023/05/08 10:21:52;;;;;;;22.70;13.70;;;17.80;99.90;;;;;;5013411;28;20414;-57
2023/05/08 10:24:22;;;;;;;30.55;14.25;;;17.80;99.90;;;;;;4993391;28;20057;-56
2023/05/08 10:26:55;;;;;;;24.95;14.20;;;17.80;99.90;;;;;;4994271;28;20096;-54
2023/05/08 10:29:41;;;;;;;26.50;13.43;;;17.70;99.90;;;;;;5006547;28;20221;-57
2023/05/08 10:32:09;;;;;;;25.38;14.35;;;17.50;99.90;;;;;;5002996;28;20043;-56
2023/05/08 10:34:39;;;;;;;20.30;13.73;;;17.30;99.90;;;;;;4991770;28;20062;-53
2023/05/08 10:37:10;;;;;;;26.58;14.80;;;17.30;99.90;;;;;;5001380;28;20043;-57
2023/05/08 10:39:39;;;;;;;27.60;14.52;;;17.10;99.90;;;;;;4993529;28;20050;-57
2023/05/08 10:42:06;;;;;;;23.48;14.30;;;17.00;99.90;;;;;;4992679;28;20042;-54
2023/05/08 10:44:33;;;;;;;27.75;14.50;;;17.00;99.90;;;;;;4993901;28;20042;-58
2023/05/08 10:47:04;;;;;;;;;;;16.90;99.90;;;;;;4994091;28;20046;-57
2023/05/08 10:49:50;;;;;;;27.20;15.57;;;16.90;99.90;;;;;;4993260;28;19929;-55
2023/05/08 10:52:32;;;;;;;26.77;14.68;;;17.00;99.90;;;;;;5012081;28;20081;-57
2023/05/08 10:55:25;;;;;;;27.33;15.13;;;17.10;99.90;;;;;;4996733;28;20451;-54
2023/05/08 10:58:05;;;;;;;26.27;15.05;;;17.30;99.90;;;;;;4993061;28;20635;-56
2023/05/08 11:00:50;;;;;;;22.38;14.25;;;17.50;99.90;;;;;;4986634;28;20089;-56
2023/05/08 11:03:27;;;;;;;23.23;14.80;;;17.50;99.90;;;;;;4994956;28;20525;-54
2023/05/08 11:06:00;;;;;;;26.45;14.45;;;17.70;99.90;;;;;;5012703;28;20057;-55
2023/05/08 11:08:28;;;;;;;26.55;14.00;;;17.90;99.90;;;;;;4992634;28;20376;-52
2023/05/08 11:11:03;;;;;;;29.52;16.08;;;17.80;99.90;;;;;;4992916;28;20038;-56
2023/05/08 11:13:50;;;;;;;25.00;14.98;;;17.50;99.90;;;;;;5003658;28;20581;-58
2023/05/08 11:16:17;;;;;;;24.70;14.45;;;17.30;99.90;;;;;;5001397;28;20483;-56
2023/05/08 11:19:15;;;;;;;24.65;15.13;;;17.30;99.90;;;;;;4992899;28;20085;-56
2023/05/08 11:22:11;;;;;;;29.88;15.73;;;17.20;99.90;;;;;;4986889;28;20042;-55
2023/05/08 11:24:40;;;;;;;28.25;15.77;;;17.00;99.90;;;;;;4987111;28;21041;-54
2023/05/08 11:27:06;;;;;;;26.63;15.77;;;16.90;99.90;;;;;;4993075;28;20065;-54
2023/05/08 11:29:35;;;;;;;37.70;15.60;;;16.80;99.90;;;;;;5012604;28;20426;-56
2023/05/08 11:32:01;;;;;;;30.60;16.20;;;16.70;99.90;;;;;;4995153;28;20039;-54
2023/05/08 11:34:48;;;;;;;32.97;16.83;;;16.60;99.90;;;;;;4991513;28;20050;-56
2023/05/08 11:37:19;;;;;;;28.08;16.90;;;16.50;99.90;;;;;;4997523;28;20042;-55
2023/05/08 11:39:47;;;;;;;29.23;17.20;;;16.30;99.90;;;;;;4999858;28;20081;-57
2023/05/08 11:42:25;;;;;;;31.15;17.00;;;16.20;99.90;;;;;;5002461;28;20037;-56
2023/05/08 11:45:11;;;;;;;27.83;17.05;;;16.10;99.90;;;;;;5007247;28;20066;-54
2023/05/08 11:47:43;;;;;;;28.77;15.82;;;16.10;99.90;;;;;;4997838;28;20096;-56
2023/05/08 11:50:12;;;;;;;31.17;16.85;;;16.10;99.90;;;;;;5000240;28;20091;-57
2023/05/08 11:52:41;;;;;;;27.83;16.20;;;16.10;99.90;;;;;;5006835;28;20054;-54
2023/05/08 11:55:09;;;;;;;30.10;17.45;;;16.10;99.90;;;;;;4992251;28;20038;-53
2023/05/08 11:57:37;;;;;;;35.30;18.88;;;16.00;99.90;;;;;;4992498;28;20376;-52
2023/05/08 12:00:04;;;;;;;;;;;15.90;99.90;;;;;;4992297;28;20050;-55
2023/05/08 12:02:42;;;;;;;31.02;17.40;;;15.80;99.90;;;;;;4991453;28;19953;-55
2023/05/08 12:05:10;;;;;;;29.08;17.42;;;15.80;99.90;;;;;;5009551;28;20398;-57
2023/05/08 12:07:45;;;;;;;32.95;18.50;;;15.80;99.90;;;;;;4998595;28;20047;-56
2023/05/08 12:10:13;;;;;;;36.83;19.48;;;15.90;99.90;;;;;;4991627;28;20042;-55
2023/05/08 12:12:42;;;;;;;36.35;19.33;;;16.30;99.90;;;;;;4991840;28;20803;-56
2023/05/08 12:15:11;;;;;;;36.13;20.75;;;15.70;99.90;;;;;;4992064;28;20042;-55
2023/05/08 12:17:39;;;;;;;38.42;20.10;;;15.60;99.90;;;;;;4991255;28;20054;-56
2023/05/08 12:20:14;;;;;;;35.88;20.75;;;15.50;99.90;;;;;;5008261;28;20045;-53
2023/05/08 12:22:49;;;;;;;41.30;20.40;;;15.60;99.90;;;;;;4997699;28;20069;-53
2023/05/08 12:25:16;;;;;;;34.08;19.63;;;15.60;99.90;;;;;;4991994;28;20030;-55
2023/05/08 12:27:43;;;;;;;37.40;19.60;;;15.40;99.90;;;;;;4996323;28;20041;-54
2023/05/08 12:30:12;;;;;;;34.88;20.00;;;15.40;99.90;;;;;;5009888;28;20108;-56
2023/05/08 12:32:41;;;;;;;34.90;20.00;;;15.40;99.90;;;;;;4991567;28;20042;-53
2023/05/08 12:35:09;;;;;;;33.70;19.92;;;15.50;99.90;;;;;;4990297;28;20081;-54
2023/05/08 12:37:36;;;;;;;36.97;20.90;;;15.60;99.90;;;;;;5011527;28;20077;-56
2023/05/08 12:40:05;;;;;;;34.63;19.67;;;15.60;99.90;;;;;;4993443;28;20097;-57
2023/05/08 12:42:48;;;;;;;34.25;20.98;;;15.50;99.90;;;;;;4991608;28;20042;-55
2023/05/08 12:45:24;;;;;;;34.88;20.30;;;15.50;99.90;;;;;;4999932;28;20423;-56
2023/05/08 12:47:52;;;;;;;39.38;22.23;;;15.40;99.90;;;;;;5005119;28;20038;-56
2023/05/08 12:50:20;;;;;;;36.92;20.90;;;15.40;99.90;;;;;;4990796;28;20050;-55
2023/05/08 12:52:47;;;;;;;38.72;21.60;;;15.50;99.90;;;;;;4991394;28;20092;-57
2023/05/08 12:55:26;;;;;;;37.35;21.13;;;15.50;99.90;;;;;;5009163;28;20130;-56